sensor_id;sensor_type;location;lat;lon;timestamp;temperature;humidity
18894;DHT22;9579;49.488;8.226;2023-07-13T00:01:35;21.80;80.70
18894;DHT22;9579;49.488;8.226;2023-07-13T00:04:25;21.70;80.90
18894;DHT22;9579;49.488;8.226;2023-07-13T00:07:12;21.70;80.90
18894;DHT22;9579;49.488;8.226;2023-07-13T00:10:00;21.70;81.10
18894;DHT22;9579;49.488;8.226;2023-07-13T00:12:49;21.60;81.10
18894;DHT22;9579;49.488;8.226;2023-07-13T00:15:36;21.60;81.90
18894;DHT22;9579;49.488;8.226;2023-07-13T00:18:23;21.60;81.90
18894;DHT22;9579;49.488;8.226;2023-07-13T00:21:11;21.60;82.30
18894;DHT22;9579;49.488;8.226;2023-07-13T00:23:58;21.60;82.10
18894;DHT22;9579;49.488;8.226;2023-07-13T00:26:46;21.70;81.90
18894;DHT22;9579;49.488;8.226;2023-07-13T00:29:34;21.60;81.70
18894;DHT22;9579;49.488;8.226;2023-07-13T00:32:21;21.50;81.50
18894;DHT22;9579;49.488;8.226;2023-07-13T00:35:09;21.60;82.30
18894;DHT22;9579;49.488;8.226;2023-07-13T00:37:56;21.60;82.20
18894;DHT22;9579;49.488;8.226;2023-07-13T00:40:43;21.70;82.80
18894;DHT22;9579;49.488;8.226;2023-07-13T00:43:30;21.80;82.60
18894;DHT22;9579;49.488;8.226;2023-07-13T00:46:25;21.90;82.70
18894;DHT22;9579;49.488;8.226;2023-07-13T00:49:16;21.90;83.10
18894;DHT22;9579;49.488;8.226;2023-07-13T00:52:07;21.70;84.50
18894;DHT22;9579;49.488;8.226;2023-07-13T00:54:54;21.60;84.50
18894;DHT22;9579;49.488;8.226;2023-07-13T00:57:43;21.60;84.90
18894;DHT22;9579;49.488;8.226;2023-07-13T01:00:31;21.60;85.70
18894;DHT22;9579;49.488;8.226;2023-07-13T01:03:20;21.60;86.00
18894;DHT22;9579;49.488;8.226;2023-07-13T01:06:07;21.60;86.50
18894;DHT22;9579;49.488;8.226;2023-07-13T01:08:55;21.50;86.10
18894;DHT22;9579;49.488;8.226;2023-07-13T01:11:43;21.60;85.80
18894;DHT22;9579;49.488;8.226;2023-07-13T01:14:30;21.60;85.30
18894;DHT22;9579;49.488;8.226;2023-07-13T01:17:17;21.50;85.00
18894;DHT22;9579;49.488;8.226;2023-07-13T01:20:07;21.60;85.70
18894;DHT22;9579;49.488;8.226;2023-07-13T01:22:56;21.50;84.90
18894;DHT22;9579;49.488;8.226;2023-07-13T01:25:45;21.50;85.40
18894;DHT22;9579;49.488;8.226;2023-07-13T01:28:32;21.50;84.00
18894;DHT22;9579;49.488;8.226;2023-07-13T01:31:22;21.40;84.80
18894;DHT22;9579;49.488;8.226;2023-07-13T01:34:09;21.40;84.90
18894;DHT22;9579;49.488;8.226;2023-07-13T01:36:56;21.50;84.80
18894;DHT22;9579;49.488;8.226;2023-07-13T01:39:45;21.50;84.90
18894;DHT22;9579;49.488;8.226;2023-07-13T01:42:32;21.40;83.80
18894;DHT22;9579;49.488;8.226;2023-07-13T01:45:19;21.20;83.80
18894;DHT22;9579;49.488;8.226;2023-07-13T01:48:06;20.90;84.30
18894;DHT22;9579;49.488;8.226;2023-07-13T01:50:53;20.80;84.80
18894;DHT22;9579;49.488;8.226;2023-07-13T01:53:40;20.80;85.20
18894;DHT22;9579;49.488;8.226;2023-07-13T01:56:28;20.70;85.60
18894;DHT22;9579;49.488;8.226;2023-07-13T01:59:15;20.60;85.70
18894;DHT22;9579;49.488;8.226;2023-07-13T02:02:03;20.60;86.00
18894;DHT22;9579;49.488;8.226;2023-07-13T02:04:50;20.70;86.80
18894;DHT22;9579;49.488;8.226;2023-07-13T02:07:37;20.90;86.90
18894;DHT22;9579;49.488;8.226;2023-07-13T02:10:24;20.90;87.60
18894;DHT22;9579;49.488;8.226;2023-07-13T02:13:12;21.00;87.70
18894;DHT22;9579;49.488;8.226;2023-07-13T02:15:59;21.10;87.70
18894;DHT22;9579;49.488;8.226;2023-07-13T02:18:46;21.20;88.70
18894;DHT22;9579;49.488;8.226;2023-07-13T02:21:33;21.20;88.40
18894;DHT22;9579;49.488;8.226;2023-07-13T02:24:20;21.20;88.90
18894;DHT22;9579;49.488;8.226;2023-07-13T02:27:07;21.20;88.40
18894;DHT22;9579;49.488;8.226;2023-07-13T02:29:56;21.10;88.40
18894;DHT22;9579;49.488;8.226;2023-07-13T02:32:43;21.10;88.90
18894;DHT22;9579;49.488;8.226;2023-07-13T02:35:30;21.00;89.20
18894;DHT22;9579;49.488;8.226;2023-07-13T02:38:17;20.90;89.70
18894;DHT22;9579;49.488;8.226;2023-07-13T02:41:05;20.90;90.40
18894;DHT22;9579;49.488;8.226;2023-07-13T02:43:53;20.80;90.60
18894;DHT22;9579;49.488;8.226;2023-07-13T02:46:41;20.70;90.50
18894;DHT22;9579;49.488;8.226;2023-07-13T02:49:28;20.60;91.10
18894;DHT22;9579;49.488;8.226;2023-07-13T02:52:15;20.50;91.10
18894;DHT22;9579;49.488;8.226;2023-07-13T02:55:02;20.40;90.80
18894;DHT22;9579;49.488;8.226;2023-07-13T02:57:49;20.30;91.00
18894;DHT22;9579;49.488;8.226;2023-07-13T03:00:38;20.30;91.40
18894;DHT22;9579;49.488;8.226;2023-07-13T03:03:28;20.30;91.50
18894;DHT22;9579;49.488;8.226;2023-07-13T03:06:15;20.30;91.20
18894;DHT22;9579;49.488;8.226;2023-07-13T03:09:03;20.50;91.40
18894;DHT22;9579;49.488;8.226;2023-07-13T03:11:52;20.40;91.00
18894;DHT22;9579;49.488;8.226;2023-07-13T03:14:40;20.30;90.50
18894;DHT22;9579;49.488;8.226;2023-07-13T03:17:27;20.20;90.40
18894;DHT22;9579;49.488;8.226;2023-07-13T03:20:15;20.00;90.90
18894;DHT22;9579;49.488;8.226;2023-07-13T03:23:02;19.70;91.30
18894;DHT22;9579;49.488;8.226;2023-07-13T03:25:50;19.60;91.90
18894;DHT22;9579;49.488;8.226;2023-07-13T03:28:37;19.60;92.10
18894;DHT22;9579;49.488;8.226;2023-07-13T03:31:26;19.70;91.90
18894;DHT22;9579;49.488;8.226;2023-07-13T03:34:14;19.70;91.60
18894;DHT22;9579;49.488;8.226;2023-07-13T03:37:02;19.80;91.50
18894;DHT22;9579;49.488;8.226;2023-07-13T03:39:50;19.80;91.70
18894;DHT22;9579;49.488;8.226;2023-07-13T03:42:37;19.80;91.50
18894;DHT22;9579;49.488;8.226;2023-07-13T03:45:24;19.70;91.60
18894;DHT22;9579;49.488;8.226;2023-07-13T03:48:11;19.60;91.80
18894;DHT22;9579;49.488;8.226;2023-07-13T03:50:58;19.50;91.60
18894;DHT22;9579;49.488;8.226;2023-07-13T03:53:47;19.50;92.10
18894;DHT22;9579;49.488;8.226;2023-07-13T03:56:34;19.40;92.60
18894;DHT22;9579;49.488;8.226;2023-07-13T03:59:21;19.40;92.60
18894;DHT22;9579;49.488;8.226;2023-07-13T04:02:08;19.40;92.50
18894;DHT22;9579;49.488;8.226;2023-07-13T04:04:55;19.40;92.70
18894;DHT22;9579;49.488;8.226;2023-07-13T04:07:42;19.40;92.40
18894;DHT22;9579;49.488;8.226;2023-07-13T04:10:31;19.50;92.90
18894;DHT22;9579;49.488;8.226;2023-07-13T04:13:18;19.60;92.80
18894;DHT22;9579;49.488;8.226;2023-07-13T04:16:05;19.60;92.60
18894;DHT22;9579;49.488;8.226;2023-07-13T04:18:55;19.50;92.30
18894;DHT22;9579;49.488;8.226;2023-07-13T04:21:45;19.50;92.50
18894;DHT22;9579;49.488;8.226;2023-07-13T04:24:32;19.50;92.90
18894;DHT22;9579;49.488;8.226;2023-07-13T04:27:00;19.50;93.10
18894;DHT22;9579;49.488;8.226;2023-07-13T04:29:48;19.60;93.10
18894;DHT22;9579;49.488;8.226;2023-07-13T04:32:35;19.70;93.00
18894;DHT22;9579;49.488;8.226;2023-07-13T04:35:22;19.90;93.10
18894;DHT22;9579;49.488;8.226;2023-07-13T04:38:10;20.00;92.90
18894;DHT22;9579;49.488;8.226;2023-07-13T04:40:59;19.90;92.80
18894;DHT22;9579;49.488;8.226;2023-07-13T04:43:48;19.90;92.80
18894;DHT22;9579;49.488;8.226;2023-07-13T04:46:35;20.00;92.90
18894;DHT22;9579;49.488;8.226;2023-07-13T04:49:23;20.10;92.20
18894;DHT22;9579;49.488;8.226;2023-07-13T04:52:10;20.10;93.10
18894;DHT22;9579;49.488;8.226;2023-07-13T04:54:57;20.10;93.10
18894;DHT22;9579;49.488;8.226;2023-07-13T04:57:45;20.20;93.20
18894;DHT22;9579;49.488;8.226;2023-07-13T05:00:33;20.20;93.20
18894;DHT22;9579;49.488;8.226;2023-07-13T05:03:20;20.30;93.40
18894;DHT22;9579;49.488;8.226;2023-07-13T05:06:08;20.40;93.50
18894;DHT22;9579;49.488;8.226;2023-07-13T05:08:56;20.40;93.50
18894;DHT22;9579;49.488;8.226;2023-07-13T05:11:43;20.50;93.70
18894;DHT22;9579;49.488;8.226;2023-07-13T05:14:30;20.60;93.60
18894;DHT22;9579;49.488;8.226;2023-07-13T05:17:19;20.70;93.50
18894;DHT22;9579;49.488;8.226;2023-07-13T05:20:06;20.90;93.20
18894;DHT22;9579;49.488;8.226;2023-07-13T05:22:54;20.90;93.20
18894;DHT22;9579;49.488;8.226;2023-07-13T05:25:41;20.90;92.80
18894;DHT22;9579;49.488;8.226;2023-07-13T05:28:30;21.00;92.50
18894;DHT22;9579;49.488;8.226;2023-07-13T05:31:17;21.10;93.00
18894;DHT22;9579;49.488;8.226;2023-07-13T05:34:05;21.10;93.10
18894;DHT22;9579;49.488;8.226;2023-07-13T05:36:52;21.30;93.40
18894;DHT22;9579;49.488;8.226;2023-07-13T05:39:39;21.40;92.90
18894;DHT22;9579;49.488;8.226;2023-07-13T05:42:26;21.50;93.10
18894;DHT22;9579;49.488;8.226;2023-07-13T05:45:14;21.60;93.50
18894;DHT22;9579;49.488;8.226;2023-07-13T05:48:01;21.80;93.40
18894;DHT22;9579;49.488;8.226;2023-07-13T05:50:49;21.90;93.20
18894;DHT22;9579;49.488;8.226;2023-07-13T05:53:36;22.20;93.20
18894;DHT22;9579;49.488;8.226;2023-07-13T05:56:23;22.30;92.10
18894;DHT22;9579;49.488;8.226;2023-07-13T05:59:11;22.60;91.60
18894;DHT22;9579;49.488;8.226;2023-07-13T06:01:59;22.70;90.40
18894;DHT22;9579;49.488;8.226;2023-07-13T06:04:46;22.70;89.40
18894;DHT22;9579;49.488;8.226;2023-07-13T06:07:34;22.80;87.30
18894;DHT22;9579;49.488;8.226;2023-07-13T06:10:21;23.00;88.00
18894;DHT22;9579;49.488;8.226;2023-07-13T06:13:08;23.10;87.40
18894;DHT22;9579;49.488;8.226;2023-07-13T06:15:55;23.30;87.20
18894;DHT22;9579;49.488;8.226;2023-07-13T06:18:42;23.20;82.50
18894;DHT22;9579;49.488;8.226;2023-07-13T06:21:29;23.30;85.60
18894;DHT22;9579;49.488;8.226;2023-07-13T06:24:17;23.50;86.40
18894;DHT22;9579;49.488;8.226;2023-07-13T06:27:05;23.70;87.10
18894;DHT22;9579;49.488;8.226;2023-07-13T06:29:52;23.80;87.10
18894;DHT22;9579;49.488;8.226;2023-07-13T06:32:39;23.90;84.60
18894;DHT22;9579;49.488;8.226;2023-07-13T06:35:26;23.90;82.20
18894;DHT22;9579;49.488;8.226;2023-07-13T06:38:13;23.90;84.40
18894;DHT22;9579;49.488;8.226;2023-07-13T06:41:01;23.70;80.50
18894;DHT22;9579;49.488;8.226;2023-07-13T06:43:49;23.50;82.10
18894;DHT22;9579;49.488;8.226;2023-07-13T06:46:36;23.30;82.00
18894;DHT22;9579;49.488;8.226;2023-07-13T06:49:23;23.50;83.60
18894;DHT22;9579;49.488;8.226;2023-07-13T06:52:10;23.70;83.60
18894;DHT22;9579;49.488;8.226;2023-07-13T06:54:57;24.10;84.20
18894;DHT22;9579;49.488;8.226;2023-07-13T06:57:45;24.50;82.00
18894;DHT22;9579;49.488;8.226;2023-07-13T07:00:32;24.70;78.00
18894;DHT22;9579;49.488;8.226;2023-07-13T07:03:19;24.70;78.90
18894;DHT22;9579;49.488;8.226;2023-07-13T07:06:12;24.70;79.80
18894;DHT22;9579;49.488;8.226;2023-07-13T07:09:00;24.90;79.90
18894;DHT22;9579;49.488;8.226;2023-07-13T07:11:47;25.00;79.70
18894;DHT22;9579;49.488;8.226;2023-07-13T07:14:36;24.80;77.40
18894;DHT22;9579;49.488;8.226;2023-07-13T07:17:23;24.70;80.20
18894;DHT22;9579;49.488;8.226;2023-07-13T07:20:11;24.70;80.20
18894;DHT22;9579;49.488;8.226;2023-07-13T07:22:58;24.50;79.80
18894;DHT22;9579;49.488;8.226;2023-07-13T07:25:45;24.60;78.40
18894;DHT22;9579;49.488;8.226;2023-07-13T07:28:32;24.30;79.00
18894;DHT22;9579;49.488;8.226;2023-07-13T07:31:20;24.10;80.40
18894;DHT22;9579;49.488;8.226;2023-07-13T07:34:07;24.70;81.40
18894;DHT22;9579;49.488;8.226;2023-07-13T07:36:56;25.10;78.40
18894;DHT22;9579;49.488;8.226;2023-07-13T07:39:44;25.60;77.40
18894;DHT22;9579;49.488;8.226;2023-07-13T07:42:31;25.80;75.80
18894;DHT22;9579;49.488;8.226;2023-07-13T07:45:18;25.70;78.10
18894;DHT22;9579;49.488;8.226;2023-07-13T07:48:07;26.10;75.70
18894;DHT22;9579;49.488;8.226;2023-07-13T07:50:55;26.30;74.90
18894;DHT22;9579;49.488;8.226;2023-07-13T07:53:42;26.70;75.00
18894;DHT22;9579;49.488;8.226;2023-07-13T07:56:29;26.70;73.50
18894;DHT22;9579;49.488;8.226;2023-07-13T07:59:16;26.60;74.10
18894;DHT22;9579;49.488;8.226;2023-07-13T08:02:04;26.80;73.20
18894;DHT22;9579;49.488;8.226;2023-07-13T08:04:52;26.20;73.00
18894;DHT22;9579;49.488;8.226;2023-07-13T08:07:40;26.40;73.50
18894;DHT22;9579;49.488;8.226;2023-07-13T08:10:27;26.50;73.50
18894;DHT22;9579;49.488;8.226;2023-07-13T08:13:14;26.70;74.40
18894;DHT22;9579;49.488;8.226;2023-07-13T08:16:03;26.90;72.30
18894;DHT22;9579;49.488;8.226;2023-07-13T08:18:50;26.60;71.90
18894;DHT22;9579;49.488;8.226;2023-07-13T08:21:38;26.30;72.90
18894;DHT22;9579;49.488;8.226;2023-07-13T08:24:26;26.20;73.20
18894;DHT22;9579;49.488;8.226;2023-07-13T08:27:13;26.40;71.70
18894;DHT22;9579;49.488;8.226;2023-07-13T08:30:00;26.80;73.30
18894;DHT22;9579;49.488;8.226;2023-07-13T08:32:47;26.90;70.60
18894;DHT22;9579;49.488;8.226;2023-07-13T08:35:34;26.90;71.80
18894;DHT22;9579;49.488;8.226;2023-07-13T08:38:23;27.20;71.80
18894;DHT22;9579;49.488;8.226;2023-07-13T08:41:13;27.40;68.90
18894;DHT22;9579;49.488;8.226;2023-07-13T08:44:00;27.10;69.70
18894;DHT22;9579;49.488;8.226;2023-07-13T08:46:51;26.40;69.80
18894;DHT22;9579;49.488;8.226;2023-07-13T08:49:39;26.30;70.90
18894;DHT22;9579;49.488;8.226;2023-07-13T08:52:32;26.20;70.90
18894;DHT22;9579;49.488;8.226;2023-07-13T08:55:24;26.00;71.90
18894;DHT22;9579;49.488;8.226;2023-07-13T08:58:15;26.20;72.70
18894;DHT22;9579;49.488;8.226;2023-07-13T09:01:14;26.20;70.60
18894;DHT22;9579;49.488;8.226;2023-07-13T09:04:08;26.60;71.20
18894;DHT22;9579;49.488;8.226;2023-07-13T09:07:00;27.10;70.50
18894;DHT22;9579;49.488;8.226;2023-07-13T09:10:01;27.80;70.40
18894;DHT22;9579;49.488;8.226;2023-07-13T09:13:00;28.10;67.60
18894;DHT22;9579;49.488;8.226;2023-07-13T09:15:50;27.60;66.30
18894;DHT22;9579;49.488;8.226;2023-07-13T09:18:42;27.50;67.40
18894;DHT22;9579;49.488;8.226;2023-07-13T09:21:32;27.90;66.30
18894;DHT22;9579;49.488;8.226;2023-07-13T09:24:32;28.00;66.60
18894;DHT22;9579;49.488;8.226;2023-07-13T09:27:24;27.70;66.10
18894;DHT22;9579;49.488;8.226;2023-07-13T09:30:27;27.10;67.50
18894;DHT22;9579;49.488;8.226;2023-07-13T09:33:16;27.00;66.00
18894;DHT22;9579;49.488;8.226;2023-07-13T09:36:18;26.90;67.40
18894;DHT22;9579;49.488;8.226;2023-07-13T09:39:12;27.00;67.00
18894;DHT22;9579;49.488;8.226;2023-07-13T09:42:07;26.70;65.60
18894;DHT22;9579;49.488;8.226;2023-07-13T09:44:56;27.00;66.30
18894;DHT22;9579;49.488;8.226;2023-07-13T09:47:44;27.20;67.00
18894;DHT22;9579;49.488;8.226;2023-07-13T09:50:32;27.60;65.80
18894;DHT22;9579;49.488;8.226;2023-07-13T09:53:19;27.40;66.00
18894;DHT22;9579;49.488;8.226;2023-07-13T09:56:19;26.90;66.10
18894;DHT22;9579;49.488;8.226;2023-07-13T09:59:18;26.60;65.70
18894;DHT22;9579;49.488;8.226;2023-07-13T10:02:23;27.10;66.70
18894;DHT22;9579;49.488;8.226;2023-07-13T10:05:14;27.70;66.70
18894;DHT22;9579;49.488;8.226;2023-07-13T10:08:01;27.90;67.00
18894;DHT22;9579;49.488;8.226;2023-07-13T10:10:53;27.80;64.70
18894;DHT22;9579;49.488;8.226;2023-07-13T10:13:43;27.60;65.00
18894;DHT22;9579;49.488;8.226;2023-07-13T10:16:32;27.70;64.10
18894;DHT22;9579;49.488;8.226;2023-07-13T10:19:23;27.50;64.60
18894;DHT22;9579;49.488;8.226;2023-07-13T10:22:22;27.60;61.20
18894;DHT22;9579;49.488;8.226;2023-07-13T10:25:15;27.60;63.70
18894;DHT22;9579;49.488;8.226;2023-07-13T10:28:11;27.50;65.00
18894;DHT22;9579;49.488;8.226;2023-07-13T10:31:01;27.40;64.80
18894;DHT22;9579;49.488;8.226;2023-07-13T10:33:49;27.40;64.70
18894;DHT22;9579;49.488;8.226;2023-07-13T10:36:40;27.30;62.60
18894;DHT22;9579;49.488;8.226;2023-07-13T10:39:30;26.90;64.60
18894;DHT22;9579;49.488;8.226;2023-07-13T10:42:28;26.60;63.80
18894;DHT22;9579;49.488;8.226;2023-07-13T10:45:17;26.20;65.80
18894;DHT22;9579;49.488;8.226;2023-07-13T10:48:06;26.00;66.10
18894;DHT22;9579;49.488;8.226;2023-07-13T10:50:56;25.80;68.10
18894;DHT22;9579;49.488;8.226;2023-07-13T10:53:46;26.10;66.60
18894;DHT22;9579;49.488;8.226;2023-07-13T10:56:35;26.60;66.20
18894;DHT22;9579;49.488;8.226;2023-07-13T10:59:26;26.90;66.30
18894;DHT22;9579;49.488;8.226;2023-07-13T11:02:25;27.10;66.60
18894;DHT22;9579;49.488;8.226;2023-07-13T11:05:22;27.30;63.30
18894;DHT22;9579;49.488;8.226;2023-07-13T11:08:18;27.20;64.10
18894;DHT22;9579;49.488;8.226;2023-07-13T11:11:32;27.20;63.60
18894;DHT22;9579;49.488;8.226;2023-07-13T11:14:31;27.10;64.90
18894;DHT22;9579;49.488;8.226;2023-07-13T11:17:34;26.90;65.40
18894;DHT22;9579;49.488;8.226;2023-07-13T11:20:37;27.80;65.40
18894;DHT22;9579;49.488;8.226;2023-07-13T11:23:30;28.40;62.40
18894;DHT22;9579;49.488;8.226;2023-07-13T11:26:40;28.00;62.70
18894;DHT22;9579;49.488;8.226;2023-07-13T11:29:37;28.00;61.60
18894;DHT22;9579;49.488;8.226;2023-07-13T11:32:30;28.20;61.00
18894;DHT22;9579;49.488;8.226;2023-07-13T11:35:22;28.00;60.90
18894;DHT22;9579;49.488;8.226;2023-07-13T11:38:14;28.30;60.60
18894;DHT22;9579;49.488;8.226;2023-07-13T11:41:05;28.00;60.00
18894;DHT22;9579;49.488;8.226;2023-07-13T11:43:54;27.90;60.10
18894;DHT22;9579;49.488;8.226;2023-07-13T11:46:47;27.90;63.40
18894;DHT22;9579;49.488;8.226;2023-07-13T11:49:41;28.10;62.60
18894;DHT22;9579;49.488;8.226;2023-07-13T11:52:32;27.90;62.00
18894;DHT22;9579;49.488;8.226;2023-07-13T11:55:21;27.50;61.90
18894;DHT22;9579;49.488;8.226;2023-07-13T11:58:11;27.60;62.60
18894;DHT22;9579;49.488;8.226;2023-07-13T12:00:59;27.30;62.00
18894;DHT22;9579;49.488;8.226;2023-07-13T12:03:52;27.30;61.10
18894;DHT22;9579;49.488;8.226;2023-07-13T12:06:40;26.80;61.80
18894;DHT22;9579;49.488;8.226;2023-07-13T12:09:28;26.50;64.10
18894;DHT22;9579;49.488;8.226;2023-07-13T12:12:18;26.30;65.20
18894;DHT22;9579;49.488;8.226;2023-07-13T12:15:06;26.50;64.80
18894;DHT22;9579;49.488;8.226;2023-07-13T12:17:54;26.40;62.70
18894;DHT22;9579;49.488;8.226;2023-07-13T12:20:44;26.60;65.20
18894;DHT22;9579;49.488;8.226;2023-07-13T12:23:34;26.80;64.10
18894;DHT22;9579;49.488;8.226;2023-07-13T12:26:22;27.10;64.40
18894;DHT22;9579;49.488;8.226;2023-07-13T12:29:15;27.60;65.20
18894;DHT22;9579;49.488;8.226;2023-07-13T12:32:08;28.00;64.40
18894;DHT22;9579;49.488;8.226;2023-07-13T12:35:13;27.70;62.80
18894;DHT22;9579;49.488;8.226;2023-07-13T12:38:01;27.80;63.00
18894;DHT22;9579;49.488;8.226;2023-07-13T12:40:49;27.10;62.50
18894;DHT22;9579;49.488;8.226;2023-07-13T12:43:37;26.90;64.80
18894;DHT22;9579;49.488;8.226;2023-07-13T12:46:26;27.00;64.90
18894;DHT22;9579;49.488;8.226;2023-07-13T12:49:15;27.60;64.60
18894;DHT22;9579;49.488;8.226;2023-07-13T12:52:03;27.60;64.20
18894;DHT22;9579;49.488;8.226;2023-07-13T12:54:57;27.20;64.60
18894;DHT22;9579;49.488;8.226;2023-07-13T12:57:50;27.40;65.70
18894;DHT22;9579;49.488;8.226;2023-07-13T13:00:38;27.70;61.40
18894;DHT22;9579;49.488;8.226;2023-07-13T13:03:28;27.80;60.50
18894;DHT22;9579;49.488;8.226;2023-07-13T13:06:23;27.80;60.80
18894;DHT22;9579;49.488;8.226;2023-07-13T13:09:12;27.30;62.00
18894;DHT22;9579;49.488;8.226;2023-07-13T13:12:01;27.60;62.20
18894;DHT22;9579;49.488;8.226;2023-07-13T13:14:48;27.90;61.80
18894;DHT22;9579;49.488;8.226;2023-07-13T13:17:36;28.20;61.90
18894;DHT22;9579;49.488;8.226;2023-07-13T13:20:23;28.40;62.00
18894;DHT22;9579;49.488;8.226;2023-07-13T13:23:12;28.60;60.90
18894;DHT22;9579;49.488;8.226;2023-07-13T13:26:02;28.80;62.00
18894;DHT22;9579;49.488;8.226;2023-07-13T13:28:50;28.40;62.90
18894;DHT22;9579;49.488;8.226;2023-07-13T13:31:38;28.40;62.40
18894;DHT22;9579;49.488;8.226;2023-07-13T13:34:25;28.20;61.30
18894;DHT22;9579;49.488;8.226;2023-07-13T13:37:20;28.10;62.10
18894;DHT22;9579;49.488;8.226;2023-07-13T13:40:14;28.20;63.20
18894;DHT22;9579;49.488;8.226;2023-07-13T13:43:02;28.20;63.50
18894;DHT22;9579;49.488;8.226;2023-07-13T13:45:50;28.40;63.40
18894;DHT22;9579;49.488;8.226;2023-07-13T13:48:37;28.90;63.80
18894;DHT22;9579;49.488;8.226;2023-07-13T13:51:24;29.50;61.30
18894;DHT22;9579;49.488;8.226;2023-07-13T13:54:12;29.40;60.00
18894;DHT22;9579;49.488;8.226;2023-07-13T13:57:00;29.10;61.10
18894;DHT22;9579;49.488;8.226;2023-07-13T13:59:47;28.90;61.90
18894;DHT22;9579;49.488;8.226;2023-07-13T14:02:36;28.70;60.40
18894;DHT22;9579;49.488;8.226;2023-07-13T14:05:25;28.70;62.10
18894;DHT22;9579;49.488;8.226;2023-07-13T14:08:14;29.10;60.80
18894;DHT22;9579;49.488;8.226;2023-07-13T14:11:01;29.90;60.10
18894;DHT22;9579;49.488;8.226;2023-07-13T14:13:51;29.80;59.90
18894;DHT22;9579;49.488;8.226;2023-07-13T14:16:38;29.40;57.90
18894;DHT22;9579;49.488;8.226;2023-07-13T14:19:28;29.10;59.80
18894;DHT22;9579;49.488;8.226;2023-07-13T14:22:15;29.10;59.90
18894;DHT22;9579;49.488;8.226;2023-07-13T14:25:03;29.10;58.80
18894;DHT22;9579;49.488;8.226;2023-07-13T14:27:55;28.80;58.60
18894;DHT22;9579;49.488;8.226;2023-07-13T14:30:44;28.50;59.80
18894;DHT22;9579;49.488;8.226;2023-07-13T14:33:33;28.50;60.30
18894;DHT22;9579;49.488;8.226;2023-07-13T14:36:29;29.40;59.60
18894;DHT22;9579;49.488;8.226;2023-07-13T14:39:18;29.40;57.00
18894;DHT22;9579;49.488;8.226;2023-07-13T14:42:08;28.90;57.80
18894;DHT22;9579;49.488;8.226;2023-07-13T14:44:55;28.70;58.20
18894;DHT22;9579;49.488;8.226;2023-07-13T14:47:43;28.70;58.90
18894;DHT22;9579;49.488;8.226;2023-07-13T14:50:31;28.90;59.10
18894;DHT22;9579;49.488;8.226;2023-07-13T14:53:22;28.70;60.00
18894;DHT22;9579;49.488;8.226;2023-07-13T14:56:10;28.60;59.20
18894;DHT22;9579;49.488;8.226;2023-07-13T14:58:58;28.50;58.90
18894;DHT22;9579;49.488;8.226;2023-07-13T15:01:45;28.00;59.10
18894;DHT22;9579;49.488;8.226;2023-07-13T15:04:33;27.70;59.80
18894;DHT22;9579;49.488;8.226;2023-07-13T15:07:20;27.60;60.20
18894;DHT22;9579;49.488;8.226;2023-07-13T15:10:15;27.70;61.90
18894;DHT22;9579;49.488;8.226;2023-07-13T15:13:14;28.40;61.00
18894;DHT22;9579;49.488;8.226;2023-07-13T15:16:01;28.90;62.70
18894;DHT22;9579;49.488;8.226;2023-07-13T15:18:49;29.50;59.90
18894;DHT22;9579;49.488;8.226;2023-07-13T15:21:37;29.30;58.30
18894;DHT22;9579;49.488;8.226;2023-07-13T15:24:24;29.40;58.10
18894;DHT22;9579;49.488;8.226;2023-07-13T15:27:13;29.30;57.50
18894;DHT22;9579;49.488;8.226;2023-07-13T15:30:00;29.10;58.00
18894;DHT22;9579;49.488;8.226;2023-07-13T15:32:47;29.00;58.40
18894;DHT22;9579;49.488;8.226;2023-07-13T15:35:35;29.40;58.50
18894;DHT22;9579;49.488;8.226;2023-07-13T15:38:23;29.80;58.80
18894;DHT22;9579;49.488;8.226;2023-07-13T15:41:17;30.00;58.50
18894;DHT22;9579;49.488;8.226;2023-07-13T15:44:22;30.20;58.10
18894;DHT22;9579;49.488;8.226;2023-07-13T15:47:11;30.10;58.10
18894;DHT22;9579;49.488;8.226;2023-07-13T15:49:58;29.70;58.20
18894;DHT22;9579;49.488;8.226;2023-07-13T15:52:48;29.40;58.90
18894;DHT22;9579;49.488;8.226;2023-07-13T15:55:37;29.30;58.50
18894;DHT22;9579;49.488;8.226;2023-07-13T15:58:25;29.00;59.20
18894;DHT22;9579;49.488;8.226;2023-07-13T16:01:15;28.90;60.50
18894;DHT22;9579;49.488;8.226;2023-07-13T16:04:03;28.70;59.50
18894;DHT22;9579;49.488;8.226;2023-07-13T16:06:50;28.60;59.30
18894;DHT22;9579;49.488;8.226;2023-07-13T16:09:38;28.50;60.10
18894;DHT22;9579;49.488;8.226;2023-07-13T16:12:26;28.20;60.10
18894;DHT22;9579;49.488;8.226;2023-07-13T16:15:15;28.20;61.60
18894;DHT22;9579;49.488;8.226;2023-07-13T16:18:05;28.10;61.10
18894;DHT22;9579;49.488;8.226;2023-07-13T16:20:52;28.10;61.40
18894;DHT22;9579;49.488;8.226;2023-07-13T16:23:43;27.90;61.00
18894;DHT22;9579;49.488;8.226;2023-07-13T16:26:32;28.00;61.30
18894;DHT22;9579;49.488;8.226;2023-07-13T16:29:27;27.70;60.40
18894;DHT22;9579;49.488;8.226;2023-07-13T16:32:14;27.30;61.20
18894;DHT22;9579;49.488;8.226;2023-07-13T16:35:03;27.00;61.70
18894;DHT22;9579;49.488;8.226;2023-07-13T16:37:51;26.90;62.80
18894;DHT22;9579;49.488;8.226;2023-07-13T16:40:38;26.60;62.80
18894;DHT22;9579;49.488;8.226;2023-07-13T16:43:25;27.10;61.40
18894;DHT22;9579;49.488;8.226;2023-07-13T16:46:17;27.10;61.20
18894;DHT22;9579;49.488;8.226;2023-07-13T16:49:16;27.20;61.30
18894;DHT22;9579;49.488;8.226;2023-07-13T16:52:11;27.30;61.70
18894;DHT22;9579;49.488;8.226;2023-07-13T16:54:58;27.30;61.20
18894;DHT22;9579;49.488;8.226;2023-07-13T16:57:46;27.30;61.20
18894;DHT22;9579;49.488;8.226;2023-07-13T17:00:33;27.40;62.00
18894;DHT22;9579;49.488;8.226;2023-07-13T17:03:23;27.20;60.40
18894;DHT22;9579;49.488;8.226;2023-07-13T17:06:23;27.30;61.10
18894;DHT22;9579;49.488;8.226;2023-07-13T17:09:12;27.40;61.40
18894;DHT22;9579;49.488;8.226;2023-07-13T17:12:00;27.50;62.50
18894;DHT22;9579;49.488;8.226;2023-07-13T17:14:47;27.60;61.90
18894;DHT22;9579;49.488;8.226;2023-07-13T17:17:36;27.70;61.40
18894;DHT22;9579;49.488;8.226;2023-07-13T17:20:30;27.80;62.20
18894;DHT22;9579;49.488;8.226;2023-07-13T17:23:19;27.80;59.60
18894;DHT22;9579;49.488;8.226;2023-07-13T17:26:07;27.60;61.00
18894;DHT22;9579;49.488;8.226;2023-07-13T17:28:55;27.60;60.30
18894;DHT22;9579;49.488;8.226;2023-07-13T17:31:42;27.60;60.50
18894;DHT22;9579;49.488;8.226;2023-07-13T17:34:30;27.40;60.20
18894;DHT22;9579;49.488;8.226;2023-07-13T17:37:18;27.10;60.40
18894;DHT22;9579;49.488;8.226;2023-07-13T17:40:13;27.10;60.80
18894;DHT22;9579;49.488;8.226;2023-07-13T17:43:04;27.10;60.90
18894;DHT22;9579;49.488;8.226;2023-07-13T17:45:53;27.00;61.90
18894;DHT22;9579;49.488;8.226;2023-07-13T17:48:42;27.10;63.50
18894;DHT22;9579;49.488;8.226;2023-07-13T17:51:29;27.10;61.90
18894;DHT22;9579;49.488;8.226;2023-07-13T17:54:17;27.10;61.50
18894;DHT22;9579;49.488;8.226;2023-07-13T17:57:06;27.00;62.70
18894;DHT22;9579;49.488;8.226;2023-07-13T17:59:54;27.00;63.60
18894;DHT22;9579;49.488;8.226;2023-07-13T18:02:42;27.00;63.50
18894;DHT22;9579;49.488;8.226;2023-07-13T18:05:31;26.90;62.80